Page Field
KFMY : now visible

Airfield :











YOU CAN JOIN US ON...

 
LOGIN :

Register | Disclaimer

   EN    FR    IT 

 









Legend :    VFR   Marginal VFR   IFR   Intensive IFR   Very Intensive IFR
Visi :
Ceiling :
>= 8 km
>= 3000ft
5 to 8 km
1000 to 3000 ft
1500m to 5 km
500 to 1000 ft
800 to 1500m
200 to 500 ft
< 800m
< 200 ft
Symbols :   Thunderstorms  Fog  Heavy snow  Heavy precipitations  Wind > 20 kt







- Airport Elevation : 17 ft


KFMY - Page Field

CURRENT METAR :
  • 210653Z AUTO 06004KT 10SM CLR 23/22 A3002 RMK AO2 SLP169 T02330222 $

EXPIRED METARs :
  • 210553Z AUTO 07004KT 10SM CLR 23/22 A3004 RMK AO2 SLP174 T02330222 10250 20233 58003 $
  • 210453Z AUTO 10005KT 10SM CLR 23/22 A3005 RMK AO2 SLP177 T02330217 403330228 $

TAF KFMY
Valid from the 21 at 06:00 until the 22 at 06:00 UTC


210539Z 2106/2206 07004KT P6SM FEW030 BKN200
FM211400 12006KT P6SM SCT030 SCT200
FM211800 17007KT P6SM VCTS SCT030CB BKN200
FM212100 24007KT 6SM SHRA VCTS SCT030CB BKN100 OVC200
FM220200 VRB04KT P6SM FEW030 BKN250
KZMA FIR / North America



MET'MAP, your aeronautical weather chart ! - Copyright ORBIFLY December 2007 - Disclaimer

ORBIFLY MET'MAP TEAM :

Programming & Development : Alexandra Zaïnal
Concept & Development : Baudouin d'Aumeries
Co-Development & Prog : Marc-Olivier Méhu
Technical & hardware support : Manuel Goepfert

Contact : metmap@orbifly.com




SOURCES & CREDITS :

   NOAA       Earth
Advisory